sensor_id;sensor_type;location;lat;lon;timestamp;P1;durP1;ratioP1;P2;durP2;ratioP2
66601;SDS011;53459;51.828;7.872;2022-10-31T00:01:50;26.33;;;13.40;;
66601;SDS011;53459;51.828;7.872;2022-10-31T00:04:34;28.15;;;12.85;;
66601;SDS011;53459;51.828;7.872;2022-10-31T00:07:00;27.27;;;13.83;;
66601;SDS011;53459;51.828;7.872;2022-10-31T00:09:25;26.67;;;12.90;;
66601;SDS011;53459;51.828;7.872;2022-10-31T00:11:51;30.10;;;14.20;;
66601;SDS011;53459;51.828;7.872;2022-10-31T00:14:16;28.03;;;14.17;;
66601;SDS011;53459;51.828;7.872;2022-10-31T00:16:41;29.50;;;13.27;;
66601;SDS011;53459;51.828;7.872;2022-10-31T00:19:07;28.47;;;13.63;;
66601;SDS011;53459;51.828;7.872;2022-10-31T00:21:33;31.83;;;14.70;;
66601;SDS011;53459;51.828;7.872;2022-10-31T00:24:45;30.70;;;14.13;;
66601;SDS011;53459;51.828;7.872;2022-10-31T00:27:10;28.30;;;14.57;;
66601;SDS011;53459;51.828;7.872;2022-10-31T00:29:36;27.37;;;13.13;;
66601;SDS011;53459;51.828;7.872;2022-10-31T00:32:01;29.67;;;13.75;;
66601;SDS011;53459;51.828;7.872;2022-10-31T00:36:13;27.90;;;13.60;;
66601;SDS011;53459;51.828;7.872;2022-10-31T00:38:39;27.73;;;13.47;;
66601;SDS011;53459;51.828;7.872;2022-10-31T00:41:05;26.45;;;12.68;;
66601;SDS011;53459;51.828;7.872;2022-10-31T00:45:17;26.38;;;12.23;;
66601;SDS011;53459;51.828;7.872;2022-10-31T00:47:43;25.08;;;12.00;;
66601;SDS011;53459;51.828;7.872;2022-10-31T00:50:08;25.67;;;12.80;;
66601;SDS011;53459;51.828;7.872;2022-10-31T00:52:34;23.42;;;12.10;;
66601;SDS011;53459;51.828;7.872;2022-10-31T00:54:59;29.67;;;13.77;;
66601;SDS011;53459;51.828;7.872;2022-10-31T00:57:25;28.77;;;13.50;;
66601;SDS011;53459;51.828;7.872;2022-10-31T00:59:50;27.67;;;13.52;;
66601;SDS011;53459;51.828;7.872;2022-10-31T01:03:14;26.92;;;13.65;;
66601;SDS011;53459;51.828;7.872;2022-10-31T01:05:40;26.27;;;13.63;;
66601;SDS011;53459;51.828;7.872;2022-10-31T01:08:05;31.00;;;14.43;;
66601;SDS011;53459;51.828;7.872;2022-10-31T01:10:31;30.80;;;14.43;;
66601;SDS011;53459;51.828;7.872;2022-10-31T01:12:56;31.07;;;15.30;;
66601;SDS011;53459;51.828;7.872;2022-10-31T01:15:22;30.38;;;14.75;;
66601;SDS011;53459;51.828;7.872;2022-10-31T01:20:12;27.33;;;13.80;;
66601;SDS011;53459;51.828;7.872;2022-10-31T01:22:38;28.17;;;13.83;;
66601;SDS011;53459;51.828;7.872;2022-10-31T01:25:03;28.90;;;13.40;;
66601;SDS011;53459;51.828;7.872;2022-10-31T01:27:29;31.53;;;14.80;;
66601;SDS011;53459;51.828;7.872;2022-10-31T01:29:55;31.80;;;15.18;;
66601;SDS011;53459;51.828;7.872;2022-10-31T01:32:21;32.43;;;15.60;;
66601;SDS011;53459;51.828;7.872;2022-10-31T01:34:46;34.73;;;15.80;;
66601;SDS011;53459;51.828;7.872;2022-10-31T01:37:11;34.53;;;16.47;;
66601;SDS011;53459;51.828;7.872;2022-10-31T01:39:37;31.73;;;16.33;;
66601;SDS011;53459;51.828;7.872;2022-10-31T01:42:02;31.97;;;14.93;;
66601;SDS011;53459;51.828;7.872;2022-10-31T01:48:35;35.47;;;15.77;;
66601;SDS011;53459;51.828;7.872;2022-10-31T01:51:01;29.33;;;15.03;;
66601;SDS011;53459;51.828;7.872;2022-10-31T01:53:29;29.55;;;13.70;;
66601;SDS011;53459;51.828;7.872;2022-10-31T01:55:55;28.90;;;14.13;;
66601;SDS011;53459;51.828;7.872;2022-10-31T01:58:22;32.22;;;15.65;;
66601;SDS011;53459;51.828;7.872;2022-10-31T02:00:51;33.15;;;15.55;;
66601;SDS011;53459;51.828;7.872;2022-10-31T02:03:18;29.02;;;14.40;;
66601;SDS011;53459;51.828;7.872;2022-10-31T02:05:43;31.58;;;15.48;;
66601;SDS011;53459;51.828;7.872;2022-10-31T02:08:13;35.33;;;15.97;;
66601;SDS011;53459;51.828;7.872;2022-10-31T02:10:39;36.25;;;16.45;;
66601;SDS011;53459;51.828;7.872;2022-10-31T02:13:06;31.07;;;15.90;;
66601;SDS011;53459;51.828;7.872;2022-10-31T02:15:32;30.65;;;15.27;;
66601;SDS011;53459;51.828;7.872;2022-10-31T02:17:58;32.78;;;15.43;;
66601;SDS011;53459;51.828;7.872;2022-10-31T02:20:24;29.17;;;14.17;;
66601;SDS011;53459;51.828;7.872;2022-10-31T02:23:10;29.50;;;14.27;;
66601;SDS011;53459;51.828;7.872;2022-10-31T02:29:55;28.40;;;15.00;;
66601;SDS011;53459;51.828;7.872;2022-10-31T02:37:44;33.87;;;15.10;;
66601;SDS011;53459;51.828;7.872;2022-10-31T02:40:30;30.55;;;14.57;;
66601;SDS011;53459;51.828;7.872;2022-10-31T02:43:15;30.63;;;14.70;;
66601;SDS011;53459;51.828;7.872;2022-10-31T02:50:45;34.78;;;15.55;;
66601;SDS011;53459;51.828;7.872;2022-10-31T02:53:15;40.23;;;17.20;;
66601;SDS011;53459;51.828;7.872;2022-10-31T02:55:47;27.80;;;14.47;;
66601;SDS011;53459;51.828;7.872;2022-10-31T02:58:14;32.80;;;15.20;;
66601;SDS011;53459;51.828;7.872;2022-10-31T03:00:43;30.15;;;15.38;;
66601;SDS011;53459;51.828;7.872;2022-10-31T03:03:19;33.42;;;16.10;;
66601;SDS011;53459;51.828;7.872;2022-10-31T03:06:07;30.65;;;15.13;;
66601;SDS011;53459;51.828;7.872;2022-10-31T03:11:14;34.60;;;16.80;;
66601;SDS011;53459;51.828;7.872;2022-10-31T03:16:12;31.50;;;15.37;;
66601;SDS011;53459;51.828;7.872;2022-10-31T03:18:40;31.38;;;15.73;;
66601;SDS011;53459;51.828;7.872;2022-10-31T03:21:07;29.83;;;14.40;;
66601;SDS011;53459;51.828;7.872;2022-10-31T03:24:21;33.72;;;16.55;;
66601;SDS011;53459;51.828;7.872;2022-10-31T03:26:49;35.57;;;16.60;;
66601;SDS011;53459;51.828;7.872;2022-10-31T03:31:06;26.73;;;14.40;;
66601;SDS011;53459;51.828;7.872;2022-10-31T03:33:33;31.60;;;15.50;;
66601;SDS011;53459;51.828;7.872;2022-10-31T03:37:22;32.42;;;16.63;;
66601;SDS011;53459;51.828;7.872;2022-10-31T03:39:49;32.45;;;15.23;;
66601;SDS011;53459;51.828;7.872;2022-10-31T03:42:18;32.00;;;16.17;;
66601;SDS011;53459;51.828;7.872;2022-10-31T03:44:46;31.00;;;15.43;;
66601;SDS011;53459;51.828;7.872;2022-10-31T03:47:49;27.15;;;13.55;;
66601;SDS011;53459;51.828;7.872;2022-10-31T03:50:15;30.92;;;15.45;;
66601;SDS011;53459;51.828;7.872;2022-10-31T03:52:42;27.70;;;14.70;;
66601;SDS011;53459;51.828;7.872;2022-10-31T03:59:17;26.67;;;13.77;;
66601;SDS011;53459;51.828;7.872;2022-10-31T04:01:46;26.20;;;14.35;;
66601;SDS011;53459;51.828;7.872;2022-10-31T04:04:13;30.65;;;15.38;;
66601;SDS011;53459;51.828;7.872;2022-10-31T04:06:39;34.57;;;16.27;;
66601;SDS011;53459;51.828;7.872;2022-10-31T04:09:05;32.57;;;15.83;;
66601;SDS011;53459;51.828;7.872;2022-10-31T04:11:36;29.77;;;16.17;;
66601;SDS011;53459;51.828;7.872;2022-10-31T04:14:02;30.95;;;16.30;;
66601;SDS011;53459;51.828;7.872;2022-10-31T04:17:37;43.03;;;18.00;;
66601;SDS011;53459;51.828;7.872;2022-10-31T04:20:04;36.33;;;17.02;;
66601;SDS011;53459;51.828;7.872;2022-10-31T04:22:29;42.60;;;18.80;;
66601;SDS011;53459;51.828;7.872;2022-10-31T04:24:55;41.07;;;19.43;;
66601;SDS011;53459;51.828;7.872;2022-10-31T04:27:20;39.90;;;17.70;;
66601;SDS011;53459;51.828;7.872;2022-10-31T04:29:45;31.58;;;14.95;;
66601;SDS011;53459;51.828;7.872;2022-10-31T04:32:11;28.63;;;14.40;;
66601;SDS011;53459;51.828;7.872;2022-10-31T04:34:36;31.33;;;14.43;;
66601;SDS011;53459;51.828;7.872;2022-10-31T04:37:01;29.23;;;14.53;;
66601;SDS011;53459;51.828;7.872;2022-10-31T04:39:27;34.43;;;16.03;;
66601;SDS011;53459;51.828;7.872;2022-10-31T04:41:52;34.30;;;17.07;;
66601;SDS011;53459;51.828;7.872;2022-10-31T04:44:18;36.65;;;16.58;;
66601;SDS011;53459;51.828;7.872;2022-10-31T04:46:43;36.47;;;16.90;;
66601;SDS011;53459;51.828;7.872;2022-10-31T04:49:08;29.20;;;13.97;;
66601;SDS011;53459;51.828;7.872;2022-10-31T04:51:34;30.87;;;15.20;;
66601;SDS011;53459;51.828;7.872;2022-10-31T04:53:59;33.40;;;15.03;;
66601;SDS011;53459;51.828;7.872;2022-10-31T04:56:24;32.07;;;14.80;;
66601;SDS011;53459;51.828;7.872;2022-10-31T04:58:50;33.30;;;15.70;;
66601;SDS011;53459;51.828;7.872;2022-10-31T05:01:15;32.92;;;15.82;;
66601;SDS011;53459;51.828;7.872;2022-10-31T05:04:01;32.92;;;16.08;;
66601;SDS011;53459;51.828;7.872;2022-10-31T05:06:27;31.17;;;15.40;;
66601;SDS011;53459;51.828;7.872;2022-10-31T05:08:52;33.57;;;15.97;;
66601;SDS011;53459;51.828;7.872;2022-10-31T05:11:17;32.58;;;15.57;;
66601;SDS011;53459;51.828;7.872;2022-10-31T05:13:43;30.13;;;14.13;;
66601;SDS011;53459;51.828;7.872;2022-10-31T05:16:08;34.43;;;15.33;;
66601;SDS011;53459;51.828;7.872;2022-10-31T05:18:33;34.40;;;16.67;;
66601;SDS011;53459;51.828;7.872;2022-10-31T05:20:59;29.70;;;14.53;;
66601;SDS011;53459;51.828;7.872;2022-10-31T05:24:49;33.53;;;15.57;;
66601;SDS011;53459;51.828;7.872;2022-10-31T05:27:14;34.77;;;16.03;;
66601;SDS011;53459;51.828;7.872;2022-10-31T05:29:39;43.63;;;19.23;;
66601;SDS011;53459;51.828;7.872;2022-10-31T05:32:05;44.17;;;18.57;;
66601;SDS011;53459;51.828;7.872;2022-10-31T05:34:30;36.30;;;16.87;;
66601;SDS011;53459;51.828;7.872;2022-10-31T05:36:55;28.02;;;15.55;;
66601;SDS011;53459;51.828;7.872;2022-10-31T05:39:21;28.63;;;14.50;;
66601;SDS011;53459;51.828;7.872;2022-10-31T05:41:46;24.63;;;12.60;;
66601;SDS011;53459;51.828;7.872;2022-10-31T05:44:52;43.47;;;18.70;;
66601;SDS011;53459;51.828;7.872;2022-10-31T05:47:18;31.20;;;15.77;;
66601;SDS011;53459;51.828;7.872;2022-10-31T05:49:43;31.87;;;14.60;;
66601;SDS011;53459;51.828;7.872;2022-10-31T05:52:08;34.10;;;15.63;;
66601;SDS011;53459;51.828;7.872;2022-10-31T05:54:34;26.90;;;13.85;;
66601;SDS011;53459;51.828;7.872;2022-10-31T05:56:59;26.70;;;13.52;;
66601;SDS011;53459;51.828;7.872;2022-10-31T05:59:24;25.60;;;13.03;;
66601;SDS011;53459;51.828;7.872;2022-10-31T06:04:10;29.23;;;14.38;;
66601;SDS011;53459;51.828;7.872;2022-10-31T06:06:35;27.37;;;14.20;;
66601;SDS011;53459;51.828;7.872;2022-10-31T06:09:01;29.00;;;14.82;;
66601;SDS011;53459;51.828;7.872;2022-10-31T06:11:27;25.27;;;13.40;;
66601;SDS011;53459;51.828;7.872;2022-10-31T06:13:52;24.03;;;11.90;;
66601;SDS011;53459;51.828;7.872;2022-10-31T06:16:17;25.03;;;12.60;;
66601;SDS011;53459;51.828;7.872;2022-10-31T06:18:43;26.03;;;13.70;;
66601;SDS011;53459;51.828;7.872;2022-10-31T06:21:08;29.87;;;14.87;;
66601;SDS011;53459;51.828;7.872;2022-10-31T06:23:33;28.90;;;14.53;;
66601;SDS011;53459;51.828;7.872;2022-10-31T06:25:59;27.83;;;13.90;;
66601;SDS011;53459;51.828;7.872;2022-10-31T06:28:24;24.20;;;11.63;;
66601;SDS011;53459;51.828;7.872;2022-10-31T06:30:49;23.97;;;12.03;;
66601;SDS011;53459;51.828;7.872;2022-10-31T06:33:15;20.30;;;10.50;;
66601;SDS011;53459;51.828;7.872;2022-10-31T06:35:44;20.87;;;11.10;;
66601;SDS011;53459;51.828;7.872;2022-10-31T06:38:10;22.58;;;11.30;;
66601;SDS011;53459;51.828;7.872;2022-10-31T06:40:35;23.80;;;12.07;;
66601;SDS011;53459;51.828;7.872;2022-10-31T06:43:00;20.97;;;10.80;;
66601;SDS011;53459;51.828;7.872;2022-10-31T06:45:26;22.40;;;11.50;;
66601;SDS011;53459;51.828;7.872;2022-10-31T06:47:52;21.17;;;11.53;;
66601;SDS011;53459;51.828;7.872;2022-10-31T06:50:43;30.05;;;14.68;;
66601;SDS011;53459;51.828;7.872;2022-10-31T06:53:09;30.17;;;14.23;;
66601;SDS011;53459;51.828;7.872;2022-10-31T06:55:34;33.53;;;16.10;;
66601;SDS011;53459;51.828;7.872;2022-10-31T06:58:40;31.52;;;15.50;;
66601;SDS011;53459;51.828;7.872;2022-10-31T07:01:05;25.75;;;13.23;;
66601;SDS011;53459;51.828;7.872;2022-10-31T07:03:31;29.97;;;13.53;;
66601;SDS011;53459;51.828;7.872;2022-10-31T07:07:51;24.70;;;12.70;;
66601;SDS011;53459;51.828;7.872;2022-10-31T07:10:16;25.27;;;12.32;;
66601;SDS011;53459;51.828;7.872;2022-10-31T07:12:42;23.10;;;11.90;;
66601;SDS011;53459;51.828;7.872;2022-10-31T07:15:07;19.37;;;10.77;;
66601;SDS011;53459;51.828;7.872;2022-10-31T07:17:33;23.50;;;11.38;;
66601;SDS011;53459;51.828;7.872;2022-10-31T07:20:43;24.15;;;11.70;;
66601;SDS011;53459;51.828;7.872;2022-10-31T07:23:12;24.00;;;13.30;;
66601;SDS011;53459;51.828;7.872;2022-10-31T07:25:38;24.90;;;13.05;;
66601;SDS011;53459;51.828;7.872;2022-10-31T07:28:03;24.60;;;12.85;;
66601;SDS011;53459;51.828;7.872;2022-10-31T07:30:29;22.60;;;11.47;;
66601;SDS011;53459;51.828;7.872;2022-10-31T07:32:54;31.63;;;15.53;;
66601;SDS011;53459;51.828;7.872;2022-10-31T07:35:21;31.60;;;16.23;;
66601;SDS011;53459;51.828;7.872;2022-10-31T07:37:47;30.27;;;15.60;;
66601;SDS011;53459;51.828;7.872;2022-10-31T07:40:12;29.45;;;14.85;;
66601;SDS011;53459;51.828;7.872;2022-10-31T07:42:46;34.13;;;17.15;;
66601;SDS011;53459;51.828;7.872;2022-10-31T07:45:13;30.38;;;15.38;;
66601;SDS011;53459;51.828;7.872;2022-10-31T07:47:45;29.63;;;15.07;;
66601;SDS011;53459;51.828;7.872;2022-10-31T07:50:12;28.20;;;14.10;;
66601;SDS011;53459;51.828;7.872;2022-10-31T07:52:38;27.17;;;14.40;;
66601;SDS011;53459;51.828;7.872;2022-10-31T07:55:04;28.83;;;14.68;;
66601;SDS011;53459;51.828;7.872;2022-10-31T07:57:29;36.53;;;18.03;;
66601;SDS011;53459;51.828;7.872;2022-10-31T08:01:32;42.97;;;20.33;;
66601;SDS011;53459;51.828;7.872;2022-10-31T08:05:56;51.22;;;22.02;;
66601;SDS011;53459;51.828;7.872;2022-10-31T08:08:21;54.33;;;23.52;;
66601;SDS011;53459;51.828;7.872;2022-10-31T08:10:46;44.83;;;22.07;;
66601;SDS011;53459;51.828;7.872;2022-10-31T08:13:13;41.28;;;20.60;;
66601;SDS011;53459;51.828;7.872;2022-10-31T08:15:38;47.55;;;21.42;;
66601;SDS011;53459;51.828;7.872;2022-10-31T08:18:06;41.60;;;19.23;;
66601;SDS011;53459;51.828;7.872;2022-10-31T08:20:35;44.33;;;20.10;;
66601;SDS011;53459;51.828;7.872;2022-10-31T08:23:01;41.27;;;20.70;;
66601;SDS011;53459;51.828;7.872;2022-10-31T08:25:28;41.92;;;21.42;;
66601;SDS011;53459;51.828;7.872;2022-10-31T08:27:54;45.10;;;21.88;;
66601;SDS011;53459;51.828;7.872;2022-10-31T08:32:10;42.38;;;20.98;;
66601;SDS011;53459;51.828;7.872;2022-10-31T08:34:36;40.80;;;20.87;;
66601;SDS011;53459;51.828;7.872;2022-10-31T08:37:01;37.47;;;19.27;;
66601;SDS011;53459;51.828;7.872;2022-10-31T08:39:27;33.83;;;16.95;;
66601;SDS011;53459;51.828;7.872;2022-10-31T08:41:52;39.50;;;19.37;;
66601;SDS011;53459;51.828;7.872;2022-10-31T08:44:20;36.03;;;18.23;;
66601;SDS011;53459;51.828;7.872;2022-10-31T08:46:46;33.97;;;17.58;;
66601;SDS011;53459;51.828;7.872;2022-10-31T08:49:11;33.47;;;17.77;;
66601;SDS011;53459;51.828;7.872;2022-10-31T08:51:57;33.83;;;17.17;;
66601;SDS011;53459;51.828;7.872;2022-10-31T08:54:22;34.72;;;17.83;;
66601;SDS011;53459;51.828;7.872;2022-10-31T08:56:48;35.67;;;17.10;;
66601;SDS011;53459;51.828;7.872;2022-10-31T08:59:18;32.00;;;16.02;;
66601;SDS011;53459;51.828;7.872;2022-10-31T09:05:18;36.88;;;17.33;;
66601;SDS011;53459;51.828;7.872;2022-10-31T09:07:44;33.50;;;17.20;;
66601;SDS011;53459;51.828;7.872;2022-10-31T09:10:10;31.63;;;17.48;;
66601;SDS011;53459;51.828;7.872;2022-10-31T09:12:35;31.43;;;16.53;;
66601;SDS011;53459;51.828;7.872;2022-10-31T09:15:00;35.60;;;17.20;;
66601;SDS011;53459;51.828;7.872;2022-10-31T09:17:26;31.58;;;15.82;;
66601;SDS011;53459;51.828;7.872;2022-10-31T09:19:52;31.67;;;15.53;;
66601;SDS011;53459;51.828;7.872;2022-10-31T09:22:17;32.53;;;15.63;;
66601;SDS011;53459;51.828;7.872;2022-10-31T09:24:43;35.17;;;16.27;;
66601;SDS011;53459;51.828;7.872;2022-10-31T09:27:08;35.53;;;17.43;;
66601;SDS011;53459;51.828;7.872;2022-10-31T09:29:34;35.43;;;17.47;;
66601;SDS011;53459;51.828;7.872;2022-10-31T09:32:38;30.05;;;16.08;;
66601;SDS011;53459;51.828;7.872;2022-10-31T09:35:03;30.10;;;15.83;;
66601;SDS011;53459;51.828;7.872;2022-10-31T09:37:29;31.48;;;15.90;;
66601;SDS011;53459;51.828;7.872;2022-10-31T09:39:54;28.40;;;15.13;;
66601;SDS011;53459;51.828;7.872;2022-10-31T09:45:25;30.15;;;14.40;;
66601;SDS011;53459;51.828;7.872;2022-10-31T09:50:21;29.50;;;15.20;;
66601;SDS011;53459;51.828;7.872;2022-10-31T09:52:53;32.75;;;14.57;;
66601;SDS011;53459;51.828;7.872;2022-10-31T09:55:21;29.92;;;14.55;;
66601;SDS011;53459;51.828;7.872;2022-10-31T09:57:50;30.25;;;14.85;;
66601;SDS011;53459;51.828;7.872;2022-10-31T10:00:17;29.40;;;14.73;;
66601;SDS011;53459;51.828;7.872;2022-10-31T10:02:46;29.20;;;14.15;;
66601;SDS011;53459;51.828;7.872;2022-10-31T10:05:12;26.45;;;13.13;;
66601;SDS011;53459;51.828;7.872;2022-10-31T10:07:48;29.23;;;14.43;;
66601;SDS011;53459;51.828;7.872;2022-10-31T10:10:20;30.85;;;14.52;;
66601;SDS011;53459;51.828;7.872;2022-10-31T10:12:50;27.60;;;13.63;;
66601;SDS011;53459;51.828;7.872;2022-10-31T10:17:50;30.88;;;14.80;;
66601;SDS011;53459;51.828;7.872;2022-10-31T10:20:37;30.77;;;15.30;;
66601;SDS011;53459;51.828;7.872;2022-10-31T10:23:13;30.45;;;14.38;;
66601;SDS011;53459;51.828;7.872;2022-10-31T10:25:43;29.73;;;14.50;;
66601;SDS011;53459;51.828;7.872;2022-10-31T10:31:05;31.35;;;15.02;;
66601;SDS011;53459;51.828;7.872;2022-10-31T10:33:32;33.63;;;15.52;;
66601;SDS011;53459;51.828;7.872;2022-10-31T10:35:59;32.30;;;15.15;;
66601;SDS011;53459;51.828;7.872;2022-10-31T10:38:38;28.40;;;14.17;;
66601;SDS011;53459;51.828;7.872;2022-10-31T10:41:18;29.17;;;13.10;;
66601;SDS011;53459;51.828;7.872;2022-10-31T10:43:44;28.50;;;13.60;;
66601;SDS011;53459;51.828;7.872;2022-10-31T10:48:59;30.08;;;13.88;;
66601;SDS011;53459;51.828;7.872;2022-10-31T10:58:02;28.13;;;12.80;;
66601;SDS011;53459;51.828;7.872;2022-10-31T11:00:32;26.92;;;13.80;;
66601;SDS011;53459;51.828;7.872;2022-10-31T11:02:59;27.85;;;13.32;;
66601;SDS011;53459;51.828;7.872;2022-10-31T11:08:10;24.70;;;12.95;;
66601;SDS011;53459;51.828;7.872;2022-10-31T11:10:35;28.17;;;13.47;;
66601;SDS011;53459;51.828;7.872;2022-10-31T11:13:06;29.27;;;13.23;;
66601;SDS011;53459;51.828;7.872;2022-10-31T11:15:51;30.00;;;13.73;;
66601;SDS011;53459;51.828;7.872;2022-10-31T11:18:21;29.42;;;14.07;;
66601;SDS011;53459;51.828;7.872;2022-10-31T11:20:53;28.33;;;14.50;;
66601;SDS011;53459;51.828;7.872;2022-10-31T11:23:19;28.98;;;13.57;;
66601;SDS011;53459;51.828;7.872;2022-10-31T11:25:58;29.63;;;13.57;;
66601;SDS011;53459;51.828;7.872;2022-10-31T11:28:25;30.33;;;13.45;;
66601;SDS011;53459;51.828;7.872;2022-10-31T11:30:52;28.80;;;14.10;;
66601;SDS011;53459;51.828;7.872;2022-10-31T11:33:19;28.17;;;14.18;;
66601;SDS011;53459;51.828;7.872;2022-10-31T11:35:46;31.65;;;14.52;;
66601;SDS011;53459;51.828;7.872;2022-10-31T11:38:15;28.42;;;14.18;;
66601;SDS011;53459;51.828;7.872;2022-10-31T11:40:50;30.13;;;14.70;;
66601;SDS011;53459;51.828;7.872;2022-10-31T11:46:27;28.25;;;13.93;;
66601;SDS011;53459;51.828;7.872;2022-10-31T11:48:55;27.20;;;13.35;;
66601;SDS011;53459;51.828;7.872;2022-10-31T11:51:28;32.17;;;14.53;;
66601;SDS011;53459;51.828;7.872;2022-10-31T11:53:55;30.63;;;13.77;;
66601;SDS011;53459;51.828;7.872;2022-10-31T11:56:22;28.67;;;13.32;;
66601;SDS011;53459;51.828;7.872;2022-10-31T11:59:23;29.80;;;14.23;;
66601;SDS011;53459;51.828;7.872;2022-10-31T12:02:25;30.48;;;15.35;;
66601;SDS011;53459;51.828;7.872;2022-10-31T12:06:50;28.70;;;14.45;;
66601;SDS011;53459;51.828;7.872;2022-10-31T12:09:27;29.52;;;15.18;;
66601;SDS011;53459;51.828;7.872;2022-10-31T12:16:57;30.37;;;14.73;;
66601;SDS011;53459;51.828;7.872;2022-10-31T12:26:47;35.97;;;16.50;;
66601;SDS011;53459;51.828;7.872;2022-10-31T12:32:15;36.00;;;15.82;;
66601;SDS011;53459;51.828;7.872;2022-10-31T12:34:49;33.88;;;16.45;;
66601;SDS011;53459;51.828;7.872;2022-10-31T12:39:54;34.03;;;15.75;;
66601;SDS011;53459;51.828;7.872;2022-10-31T12:42:27;34.90;;;15.57;;
66601;SDS011;53459;51.828;7.872;2022-10-31T12:50:15;32.42;;;15.57;;
66601;SDS011;53459;51.828;7.872;2022-10-31T12:52:46;34.83;;;16.13;;
66601;SDS011;53459;51.828;7.872;2022-10-31T12:57:40;35.10;;;15.80;;
66601;SDS011;53459;51.828;7.872;2022-10-31T13:00:13;37.38;;;16.77;;
66601;SDS011;53459;51.828;7.872;2022-10-31T13:05:29;33.57;;;15.37;;
66601;SDS011;53459;51.828;7.872;2022-10-31T13:07:59;34.63;;;15.70;;
66601;SDS011;53459;51.828;7.872;2022-10-31T13:10:31;38.08;;;16.05;;
66601;SDS011;53459;51.828;7.872;2022-10-31T13:13:02;35.25;;;16.73;;
66601;SDS011;53459;51.828;7.872;2022-10-31T13:15:32;37.85;;;17.25;;
66601;SDS011;53459;51.828;7.872;2022-10-31T13:18:21;37.88;;;16.90;;
66601;SDS011;53459;51.828;7.872;2022-10-31T13:20:48;37.13;;;17.05;;
66601;SDS011;53459;51.828;7.872;2022-10-31T13:23:31;36.22;;;17.23;;
66601;SDS011;53459;51.828;7.872;2022-10-31T13:30:51;41.83;;;17.15;;
66601;SDS011;53459;51.828;7.872;2022-10-31T13:33:18;33.47;;;16.40;;
66601;SDS011;53459;51.828;7.872;2022-10-31T13:35:52;38.03;;;18.02;;
66601;SDS011;53459;51.828;7.872;2022-10-31T13:38:52;35.42;;;17.27;;
66601;SDS011;53459;51.828;7.872;2022-10-31T13:46:23;34.87;;;16.50;;
66601;SDS011;53459;51.828;7.872;2022-10-31T13:48:49;40.05;;;18.63;;
66601;SDS011;53459;51.828;7.872;2022-10-31T13:51:23;39.17;;;17.43;;
66601;SDS011;53459;51.828;7.872;2022-10-31T13:57:37;37.22;;;17.98;;
66601;SDS011;53459;51.828;7.872;2022-10-31T14:00:22;42.73;;;17.50;;
66601;SDS011;53459;51.828;7.872;2022-10-31T14:05:33;35.60;;;17.02;;
66601;SDS011;53459;51.828;7.872;2022-10-31T14:08:00;36.60;;;18.35;;
66601;SDS011;53459;51.828;7.872;2022-10-31T14:10:31;37.72;;;17.17;;
66601;SDS011;53459;51.828;7.872;2022-10-31T14:13:13;39.35;;;17.80;;
66601;SDS011;53459;51.828;7.872;2022-10-31T14:15:52;39.45;;;18.40;;
66601;SDS011;53459;51.828;7.872;2022-10-31T14:18:25;38.35;;;17.92;;
66601;SDS011;53459;51.828;7.872;2022-10-31T14:20:53;37.08;;;18.80;;
66601;SDS011;53459;51.828;7.872;2022-10-31T14:25:53;36.90;;;17.83;;
66601;SDS011;53459;51.828;7.872;2022-10-31T14:28:20;32.97;;;17.07;;
66601;SDS011;53459;51.828;7.872;2022-10-31T14:30:56;32.42;;;16.67;;
66601;SDS011;53459;51.828;7.872;2022-10-31T14:33:22;39.10;;;16.73;;
66601;SDS011;53459;51.828;7.872;2022-10-31T14:38:20;34.33;;;16.95;;
66601;SDS011;53459;51.828;7.872;2022-10-31T14:43:52;33.83;;;16.98;;
66601;SDS011;53459;51.828;7.872;2022-10-31T14:48:51;36.50;;;17.60;;
66601;SDS011;53459;51.828;7.872;2022-10-31T14:51:22;36.17;;;17.92;;
66601;SDS011;53459;51.828;7.872;2022-10-31T14:58:50;34.50;;;16.55;;
66601;SDS011;53459;51.828;7.872;2022-10-31T15:01:22;32.88;;;16.40;;
66601;SDS011;53459;51.828;7.872;2022-10-31T15:03:48;33.58;;;16.30;;
66601;SDS011;53459;51.828;7.872;2022-10-31T15:06:14;31.40;;;14.87;;
66601;SDS011;53459;51.828;7.872;2022-10-31T15:08:45;31.02;;;14.23;;
66601;SDS011;53459;51.828;7.872;2022-10-31T15:11:12;28.63;;;13.93;;
66601;SDS011;53459;51.828;7.872;2022-10-31T15:14:40;26.33;;;13.10;;
66601;SDS011;53459;51.828;7.872;2022-10-31T15:17:08;28.92;;;13.52;;
66601;SDS011;53459;51.828;7.872;2022-10-31T15:19:36;29.70;;;13.83;;
66601;SDS011;53459;51.828;7.872;2022-10-31T15:22:02;26.13;;;12.27;;
66601;SDS011;53459;51.828;7.872;2022-10-31T15:24:37;28.50;;;13.00;;
66601;SDS011;53459;51.828;7.872;2022-10-31T15:29:05;27.17;;;12.23;;
66601;SDS011;53459;51.828;7.872;2022-10-31T15:31:31;27.07;;;12.37;;
66601;SDS011;53459;51.828;7.872;2022-10-31T15:34:02;28.05;;;12.63;;
66601;SDS011;53459;51.828;7.872;2022-10-31T15:36:28;28.02;;;12.63;;
66601;SDS011;53459;51.828;7.872;2022-10-31T15:41:35;28.23;;;13.07;;
66601;SDS011;53459;51.828;7.872;2022-10-31T15:44:12;30.15;;;14.57;;
66601;SDS011;53459;51.828;7.872;2022-10-31T15:46:38;29.25;;;13.18;;
66601;SDS011;53459;51.828;7.872;2022-10-31T15:50:55;31.83;;;13.85;;
66601;SDS011;53459;51.828;7.872;2022-10-31T15:56:08;30.07;;;14.07;;
66601;SDS011;53459;51.828;7.872;2022-10-31T16:02:23;29.58;;;13.73;;
66601;SDS011;53459;51.828;7.872;2022-10-31T16:04:50;28.50;;;14.00;;
66601;SDS011;53459;51.828;7.872;2022-10-31T16:07:17;31.40;;;13.73;;
66601;SDS011;53459;51.828;7.872;2022-10-31T16:09:50;28.15;;;13.40;;
66601;SDS011;53459;51.828;7.872;2022-10-31T16:12:16;29.77;;;13.53;;
66601;SDS011;53459;51.828;7.872;2022-10-31T16:14:42;29.52;;;14.02;;
66601;SDS011;53459;51.828;7.872;2022-10-31T16:17:10;29.38;;;13.98;;
66601;SDS011;53459;51.828;7.872;2022-10-31T16:20:23;28.93;;;14.10;;
66601;SDS011;53459;51.828;7.872;2022-10-31T16:22:33;30.60;;;14.35;;
66601;SDS011;53459;51.828;7.872;2022-10-31T16:27:31;29.60;;;13.63;;
66601;SDS011;53459;51.828;7.872;2022-10-31T16:29:58;28.83;;;13.82;;
66601;SDS011;53459;51.828;7.872;2022-10-31T16:32:55;30.67;;;13.50;;
66601;SDS011;53459;51.828;7.872;2022-10-31T16:35:25;28.88;;;14.27;;
66601;SDS011;53459;51.828;7.872;2022-10-31T16:37:51;28.73;;;13.75;;
66601;SDS011;53459;51.828;7.872;2022-10-31T16:40:16;31.17;;;14.43;;
66601;SDS011;53459;51.828;7.872;2022-10-31T16:42:43;34.28;;;14.73;;
66601;SDS011;53459;51.828;7.872;2022-10-31T16:45:16;35.05;;;15.43;;
66601;SDS011;53459;51.828;7.872;2022-10-31T16:47:45;35.15;;;15.40;;
66601;SDS011;53459;51.828;7.872;2022-10-31T16:50:12;31.67;;;14.23;;
66601;SDS011;53459;51.828;7.872;2022-10-31T16:52:41;36.40;;;15.63;;
66601;SDS011;53459;51.828;7.872;2022-10-31T16:55:11;34.28;;;15.98;;
66601;SDS011;53459;51.828;7.872;2022-10-31T16:57:37;31.85;;;14.77;;
66601;SDS011;53459;51.828;7.872;2022-10-31T17:00:02;31.97;;;15.20;;
66601;SDS011;53459;51.828;7.872;2022-10-31T17:02:28;32.53;;;14.80;;
66601;SDS011;53459;51.828;7.872;2022-10-31T17:04:53;33.93;;;14.23;;
66601;SDS011;53459;51.828;7.872;2022-10-31T17:07:19;31.45;;;14.57;;
66601;SDS011;53459;51.828;7.872;2022-10-31T17:09:44;34.10;;;14.70;;
66601;SDS011;53459;51.828;7.872;2022-10-31T17:12:13;34.47;;;14.37;;